Jasper, New York
Current Conditions -  °F | °C
As of 7:56 PM on Wednesday 17 Dec 2014 (Local Time) from KELZ Reporting Station
Light Snow Light Snow  
Wind Chill: 18°   Ceiling: 1300
Heat Index: 29°   Visibility: 9mi
Dew Point: 24°   Wind: 14mph
Humidity: 82%   Direction: 270°W
Pressure: 29.94"   Gusts: NA
Location:  42.12°N, 77.5°W
Report Text: KELZ 180056Z AUTO 27012KT 9SM -SN OVC013 M02/M04 A2994 RMK AO2 UPB20E56SNE20B56 SLP159 P0000 T10171044
Loading
Personal Weather Stations






























Interactive Weather Map New forecast layout! Learn more

10-Day Weather Forecast

Advertisements
Track Severe Weather on mobile